Aviation Digital Data Service (ADDS)

Output produced by METARs form (2258 UTC 02 August 2021)
found at http://www.aviationweather.gov/metar/data/
 
METAR text: RORS 022200Z 15004KT 9999 FEW016 BKN180 27/26 Q0998
Conditions at: RORS (SHIMOJI-SHIMA IS, JP) observed 2200 UTC 02 August 2021
Temperature: 27.0°C (81°F)
Dewpoint: 26.0°C (79°F) [RH = 94%]
Pressure (altimeter): 29.47 inches Hg (998.0 mb)
Winds: from the SSE (150 degrees) at 5 MPH (4 knots; 2.1 m/s)
Visibility: 6 or more miles (10+ km)
Ceiling: 18000 feet AGL
Clouds: few clouds at 1600 feet AGL
broken clouds at 18000 feet AGL
Weather: no significant weather observed at this time

METAR text: RORS 021000Z 02001KT 9999 FEW013 BKN/// 28/26 Q0997
Conditions at: RORS (SHIMOJI-SHIMA IS, JP) observed 1000 UTC 02 August 2021
Temperature: 28.0°C (82°F)
Dewpoint: 26.0°C (79°F) [RH = 89%]
Pressure (altimeter): 29.44 inches Hg (997.0 mb)
Winds: from the NNE (20 degrees) at 1 MPH (1 knots; 0.5 m/s)
Visibility: 6 or more miles (10+ km)
Ceiling: at least 12,000 feet AGL
Clouds: few clouds at 1300 feet AGL
Weather: no significant weather observed at this time

METAR text: RORS 020900Z 32001KT 9999 FEW013 BKN/// 29/26 Q0997
Conditions at: RORS (SHIMOJI-SHIMA IS, JP) observed 0900 UTC 02 August 2021
Temperature: 29.0°C (84°F)
Dewpoint: 26.0°C (79°F) [RH = 84%]
Pressure (altimeter): 29.44 inches Hg (997.0 mb)
Winds: from the NW (320 degrees) at 1 MPH (1 knots; 0.5 m/s)
Visibility: 6 or more miles (10+ km)
Ceiling: at least 12,000 feet AGL
Clouds: few clouds at 1300 feet AGL
Weather: no significant weather observed at this time

METAR text: RORS 020800Z 32004KT 9999 FEW012 SCT080 BKN/// 29/26 Q0997
Conditions at: RORS (SHIMOJI-SHIMA IS, JP) observed 0800 UTC 02 August 2021
Temperature: 29.0°C (84°F)
Dewpoint: 26.0°C (79°F) [RH = 84%]
Pressure (altimeter): 29.44 inches Hg (997.0 mb)
Winds: from the NW (320 degrees) at 5 MPH (4 knots; 2.1 m/s)
Visibility: 6 or more miles (10+ km)
Ceiling: at least 12,000 feet AGL
Clouds: few clouds at 1200 feet AGL
scattered clouds at 8000 feet AGL
Weather: no significant weather observed at this time

METAR text: RORS 020700Z VRB01KT 9999 VCSH FEW011 BKN080 28/25 Q0997
Conditions at: RORS (SHIMOJI-SHIMA IS, JP) observed 0700 UTC 02 August 2021
Temperature: 28.0°C (82°F)
Dewpoint: 25.0°C (77°F) [RH = 84%]
Pressure (altimeter): 29.44 inches Hg (997.0 mb)
Winds: variable direction winds at 1 MPH (1 knots; 0.5 m/s)
Visibility: 6 or more miles (10+ km)
Ceiling: 8000 feet AGL
Clouds: few clouds at 1100 feet AGL
broken clouds at 8000 feet AGL
Weather: VCSH  (showers in vicinity)

METAR text: RORS 020600Z 31003KT 9999 FEW011 BKN080 28/26 Q0997
Conditions at: RORS (SHIMOJI-SHIMA IS, JP) observed 0600 UTC 02 August 2021
Temperature: 28.0°C (82°F)
Dewpoint: 26.0°C (79°F) [RH = 89%]
Pressure (altimeter): 29.44 inches Hg (997.0 mb)
Winds: from the NW (310 degrees) at 3 MPH (3 knots; 1.5 m/s)
Visibility: 6 or more miles (10+ km)
Ceiling: 8000 feet AGL
Clouds: few clouds at 1100 feet AGL
broken clouds at 8000 feet AGL
Weather: no significant weather observed at this time

METAR text: RORS 020500Z 30003KT 280V340 9999 FEW013 SCT070 BKN160 28/25 Q0997
Conditions at: RORS (SHIMOJI-SHIMA IS, JP) observed 0500 UTC 02 August 2021
Temperature: 28.0°C (82°F)
Dewpoint: 25.0°C (77°F) [RH = 84%]
Pressure (altimeter): 29.44 inches Hg (997.0 mb)
Winds: from the WNW (300 degrees) at 3 MPH (3 knots; 1.5 m/s)
Visibility: 6 or more miles (10+ km)
Ceiling: 16000 feet AGL
Clouds: few clouds at 1300 feet AGL
scattered clouds at 7000 feet AGL
broken clouds at 16000 feet AGL
Weather: no significant weather observed at this time

METAR text: RORS 020400Z 30004KT 270V340 9999 FEW008 BKN160 28/26 Q0997
Conditions at: RORS (SHIMOJI-SHIMA IS, JP) observed 0400 UTC 02 August 2021
Temperature: 28.0°C (82°F)
Dewpoint: 26.0°C (79°F) [RH = 89%]
Pressure (altimeter): 29.44 inches Hg (997.0 mb)
Winds: from the WNW (300 degrees) at 5 MPH (4 knots; 2.1 m/s)
Visibility: 6 or more miles (10+ km)
Ceiling: 16000 feet AGL
Clouds: few clouds at 800 feet AGL
broken clouds at 16000 feet AGL
Weather: no significant weather observed at this time

METAR text: RORS 020300Z 31005KT 9999 VCSH FEW008 SCT011 BKN/// 28/25 Q0997
Conditions at: RORS (SHIMOJI-SHIMA IS, JP) observed 0300 UTC 02 August 2021
Temperature: 28.0°C (82°F)
Dewpoint: 25.0°C (77°F) [RH = 84%]
Pressure (altimeter): 29.44 inches Hg (997.0 mb)
Winds: from the NW (310 degrees) at 6 MPH (5 knots; 2.6 m/s)
Visibility: 6 or more miles (10+ km)
Ceiling: at least 12,000 feet AGL
Clouds: few clouds at 800 feet AGL
scattered clouds at 1100 feet AGL
Weather: VCSH  (showers in vicinity)

METAR text: RORS 020200Z VRB01KT 9999 -RA FEW007 SCT030 BKN035 27/26 Q0998
Conditions at: RORS (SHIMOJI-SHIMA IS, JP) observed 0200 UTC 02 August 2021
Temperature: 27.0°C (81°F)
Dewpoint: 26.0°C (79°F) [RH = 94%]
Pressure (altimeter): 29.47 inches Hg (998.0 mb)
Winds: variable direction winds at 1 MPH (1 knots; 0.5 m/s)
Visibility: 6 or more miles (10+ km)
Ceiling: 3500 feet AGL
Clouds: few clouds at 700 feet AGL
scattered clouds at 3000 feet AGL
broken clouds at 3500 feet AGL
Weather: -RA  (light rain)

METAR text: RORS 020100Z 01004KT 9999 VCSH FEW005 SCT007 BKN013 27/26 Q0998
Conditions at: RORS (SHIMOJI-SHIMA IS, JP) observed 0100 UTC 02 August 2021
Temperature: 27.0°C (81°F)
Dewpoint: 26.0°C (79°F) [RH = 94%]
Pressure (altimeter): 29.47 inches Hg (998.0 mb)
Winds: from the N (10 degrees) at 5 MPH (4 knots; 2.1 m/s)
Visibility: 6 or more miles (10+ km)
Ceiling: 1300 feet AGL
Clouds: few clouds at 500 feet AGL
scattered clouds at 700 feet AGL
broken clouds at 1300 feet AGL
Weather: VCSH  (showers in vicinity)

METAR text: RORS 020000Z 22003KT 160V260 9999 -RA FEW004 FEW025TCU SCT050 BKN070 27/26 Q0998
Conditions at: RORS (SHIMOJI-SHIMA IS, JP) observed 0000 UTC 02 August 2021
Temperature: 27.0°C (81°F)
Dewpoint: 26.0°C (79°F) [RH = 94%]
Pressure (altimeter): 29.47 inches Hg (998.0 mb)
Winds: from the SW (220 degrees) at 3 MPH (3 knots; 1.5 m/s)
Visibility: 6 or more miles (10+ km)
Ceiling: 7000 feet AGL
Clouds: few clouds at 400 feet AGL
few clouds at 2500 feet AGL
scattered clouds at 5000 feet AGL
broken clouds at 7000 feet AGL
Weather: -RA  (light rain)

METAR text: RORS 012328Z 18005KT 8000 -RA FEW004 FEW025TCU BKN070 BKN090 26/25 Q0998 RMK 1ST004 1TCU025 5AS070 6AS090 A2948 TCU 25KM NW STNR
Conditions at: RORS (SHIMOJI-SHIMA IS, JP) observed 2328 UTC 01 August 2021
Temperature: 26.0°C (79°F)
Dewpoint: 25.0°C (77°F) [RH = 94%]
Pressure (altimeter): 29.47 inches Hg (998.0 mb)
Winds: from the S (180 degrees) at 6 MPH (5 knots; 2.6 m/s)
Visibility: 5 miles ( 8 km)
Ceiling: 7000 feet AGL
Clouds: few clouds at 400 feet AGL
few clouds at 2500 feet AGL
broken clouds at 7000 feet AGL
broken clouds at 9000 feet AGL
Weather: -RA  (light rain)

METAR text: RORS 012300Z 18008KT 6000 RA FEW004 FEW025TCU BKN090 26/25 Q0998
Conditions at: RORS (SHIMOJI-SHIMA IS, JP) observed 2300 UTC 01 August 2021
Temperature: 26.0°C (79°F)
Dewpoint: 25.0°C (77°F) [RH = 94%]
Pressure (altimeter): 29.47 inches Hg (998.0 mb)
Winds: from the S (180 degrees) at 9 MPH (8 knots; 4.1 m/s)
Visibility: 4 miles ( 6 km)
Ceiling: 9000 feet AGL
Clouds: few clouds at 400 feet AGL
few clouds at 2500 feet AGL
broken clouds at 9000 feet AGL
Weather: RA  (moderate rain)

METAR text: RORS 012200Z 18008KT 150V220 7000 -RA FEW005 FEW025TCU BKN090 26/26 Q0997
Conditions at: RORS (SHIMOJI-SHIMA IS, JP) observed 2200 UTC 01 August 2021
Temperature: 26.0°C (79°F)
Dewpoint: 26.0°C (79°F) [RH = 100%]
Pressure (altimeter): 29.44 inches Hg (997.0 mb)
Winds: from the S (180 degrees) at 9 MPH (8 knots; 4.1 m/s)
Visibility: 4 miles ( 7 km)
Ceiling: 9000 feet AGL
Clouds: few clouds at 500 feet AGL
few clouds at 2500 feet AGL
broken clouds at 9000 feet AGL
Weather: -RA  (light rain)